Time;durP1;ratioP1;P1;durP2;ratioP2;P2;SDS_P1;SDS_P2;PMS_P1;PMS_P2;Temp;Humidity;BMP_temperature;BMP_pressure;BME280_temperature;BME280_humidity;BME280_pressure;Samples;Min_cycle;Max_cycle;Signal;HPM_P1;HPM_P2
2022/03/12 00:02:01;;;;;;;48.17;19.85;;;;;;;10.21;61.18;101082.78;5048957;28;20094;-49
2022/03/12 00:04:26;;;;;;;49.00;20.52;;;;;;;10.19;61.21;101071.38;5049463;28;20610;-49
2022/03/12 00:06:52;;;;;;;48.97;21.15;;;;;;;10.23;61.43;101080.75;5049266;28;20119;-48
2022/03/12 00:09:18;;;;;;;44.08;19.17;;;;;;;10.29;60.81;101087.31;5048887;28;20029;-48
2022/03/12 00:11:51;;;;;;;46.70;20.08;;;;;;;10.26;60.42;101083.09;5052308;28;20527;-46
2022/03/12 00:14:21;;;;;;;45.38;19.23;;;;;;;10.37;59.73;101081.06;5052422;28;20064;-51
2022/03/12 00:16:48;;;;;;;46.92;20.23;;;;;;;10.29;59.66;101085.50;5053547;28;20068;-51
2022/03/12 00:19:14;;;;;;;46.80;20.77;;;;;;;10.30;59.78;101089.03;5053183;28;20090;-50
2022/03/12 00:21:41;;;;;;;44.70;20.38;;;;;;;10.31;59.76;101088.81;5053018;28;20548;-51
2022/03/12 00:24:08;;;;;;;48.97;19.83;;;;;;;10.26;61.09;101090.34;5053239;28;20116;-48
2022/03/12 00:26:37;;;;;;;47.28;20.42;;;;;;;10.28;61.49;101096.41;5053257;28;20037;-47
2022/03/12 00:29:02;;;;;;;50.83;19.65;;;;;;;10.14;60.15;101102.47;5052994;28;20036;-46
2022/03/12 00:31:28;;;;;;;44.17;20.92;;;;;;;10.04;60.95;101098.13;5053111;28;20033;-46
2022/03/12 00:33:53;;;;;;;48.60;21.45;;;;;;;9.95;60.99;101095.63;5052371;28;20025;-47
2022/03/12 00:36:19;;;;;;;57.08;21.05;;;;;;;9.82;61.77;101105.09;5052828;28;20329;-47
2022/03/12 00:38:45;;;;;;;60.97;21.65;;;;;;;9.64;63.15;101104.44;5052890;28;20032;-45
2022/03/12 00:41:12;;;;;;;53.78;22.02;;;;;;;9.49;65.08;101109.63;5053207;28;20029;-47
2022/03/12 00:43:37;;;;;;;47.95;21.13;;;;;;;9.31;65.81;101111.66;5044003;28;20022;-47
2022/03/12 00:46:05;;;;;;;51.20;21.20;;;;;;;9.20;67.90;101115.50;5050701;28;20036;-49
2022/03/12 00:48:31;;;;;;;45.78;21.38;;;;;;;9.17;70.02;101107.78;5052923;28;20055;-47
2022/03/12 00:50:56;;;;;;;43.40;21.13;;;;;;;9.08;70.85;101111.44;5052277;28;20024;-47
2022/03/12 00:53:22;;;;;;;46.75;21.67;;;;;;;9.02;72.00;101112.97;5052706;28;20112;-48
2022/03/12 00:55:47;;;;;;;50.75;21.45;;;;;;;9.04;72.22;101112.81;5052304;28;20468;-46
2022/03/12 00:58:12;;;;;;;46.20;20.70;;;;;;;8.97;72.06;101128.72;5052603;28;20083;-48
2022/03/12 01:00:38;;;;;;;48.35;22.00;;;;;;;8.96;72.32;101125.19;5051960;28;20060;-47
2022/03/12 01:03:03;;;;;;;50.63;21.77;;;;;;;8.94;71.94;101121.00;5051507;28;20379;-47
2022/03/12 01:05:50;;;;;;;48.95;22.42;;;;;;;8.88;70.53;101133.22;5050854;28;20499;-45
2022/03/12 01:08:17;;;;;;;45.97;20.95;;;;;;;8.94;70.57;101121.84;5052100;28;20041;-46
2022/03/12 01:10:43;;;;;;;55.28;22.48;;;;;;;8.92;69.50;101128.38;5052203;28;20151;-51
2022/03/12 01:13:08;;;;;;;47.85;22.15;;;;;;;8.89;69.42;101124.16;5051435;28;20551;-47
2022/03/12 01:15:34;;;;;;;45.55;21.20;;;;;;;8.92;69.06;101120.31;5051537;28;20100;-47
2022/03/12 01:18:00;;;;;;;49.50;20.45;;;;;;;8.89;68.85;101134.91;5052573;28;20056;-47
2022/03/12 01:20:25;;;;;;;44.53;20.48;;;;;;;8.93;68.22;101128.22;5052174;28;20025;-46
2022/03/12 01:22:51;;;;;;;43.85;21.70;;;;;;;8.96;68.53;101133.25;5052088;28;20060;-47
2022/03/12 01:25:16;;;;;;;49.50;21.23;;;;;;;8.91;68.59;101130.22;5051892;28;20043;-47
2022/03/12 01:27:42;;;;;;;39.67;19.55;;;;;;;8.93;68.17;101122.84;5051492;28;20041;-47
2022/03/12 01:30:08;;;;;;;45.03;20.42;;;;;;;8.93;68.53;101112.09;5051793;28;20572;-46
2022/03/12 01:32:34;;;;;;;38.72;19.52;;;;;;;8.93;68.21;101114.78;5051739;28;20033;-47
2022/03/12 01:34:59;;;;;;;42.58;19.55;;;;;;;8.97;68.83;101118.81;5040601;28;20030;-47
2022/03/12 01:37:25;;;;;;;46.90;19.30;;;;;;;8.97;68.67;101126.03;5048237;28;20399;-47
2022/03/12 01:39:50;;;;;;;39.92;20.25;;;;;;;8.97;69.65;101120.66;5041434;28;20170;-48
2022/03/12 01:42:16;;;;;;;47.22;21.48;;;;;;;9.01;69.65;101120.19;5052560;28;20154;-50
2022/03/12 01:44:42;;;;;;;44.45;19.10;;;;;;;8.96;70.07;101113.63;5051616;28;20029;-47
2022/03/12 01:47:11;;;;;;;37.95;19.35;;;;;;;8.93;70.32;101120.16;5051563;28;20132;-48
2022/03/12 01:49:37;;;;;;;38.58;18.67;;;;;;;9.01;70.88;101114.81;5051442;28;20025;-47
2022/03/12 01:52:04;;;;;;;39.60;20.20;;;;;;;9.05;71.21;101122.53;5050990;28;20056;-47
2022/03/12 01:54:30;;;;;;;40.38;18.88;;;;;;;9.10;71.30;101115.66;5051131;28;20052;-47
2022/03/12 01:56:57;;;;;;;33.42;18.55;;;;;;;9.05;71.72;101122.53;5051447;28;20151;-47
2022/03/12 01:59:22;;;;;;;36.10;17.55;;;;;;;9.05;72.78;101126.03;5051443;28;20029;-46
2022/03/12 02:01:51;;;;;;;37.42;18.60;;;;;;;9.10;73.14;101134.44;5051072;28;20452;-49
2022/03/12 02:04:17;;;;;;;37.33;17.65;;;;;;;9.11;73.85;101125.41;5046889;28;20033;-50
2022/03/12 02:06:45;;;;;;;39.17;18.15;;;;;;;9.18;74.38;101130.94;5050118;28;20032;-50
2022/03/12 02:09:14;;;;;;;30.77;17.20;;;;;;;9.21;74.76;101120.69;5051107;28;20036;-47
2022/03/12 02:11:40;;;;;;;30.70;16.02;;;;;;;9.27;75.43;101121.91;5049626;28;20379;-47
2022/03/12 02:14:13;;;;;;;33.90;15.85;;;;;;;9.33;75.96;101136.50;5051199;28;20078;-47
2022/03/12 02:16:51;;;;;;;27.33;14.45;;;;;;;9.35;76.86;101132.66;5049360;28;20048;-46
2022/03/12 02:19:17;;;;;;;31.90;14.65;;;;;;;9.41;77.05;101137.34;5051019;28;20075;-47
2022/03/12 02:21:44;;;;;;;26.52;14.50;;;;;;;9.45;77.25;101140.53;5049444;28;20059;-46
2022/03/12 02:24:11;;;;;;;27.27;14.20;;;;;;;9.49;77.79;101141.03;5050376;28;20107;-48
2022/03/12 02:26:38;;;;;;;27.27;13.80;;;;;;;9.53;77.89;101142.38;5050369;28;20171;-46
2022/03/12 02:29:12;;;;;;;22.75;13.50;;;;;;;9.53;78.20;101139.69;5051078;28;20057;-50
2022/03/12 02:31:38;;;;;;;23.67;12.50;;;;;;;9.62;77.72;101144.91;5049751;28;20024;-50
2022/03/12 02:34:04;;;;;;;28.98;13.32;;;;;;;9.65;77.85;101146.41;5050265;28;20112;-46
2022/03/12 02:36:30;;;;;;;23.48;13.40;;;;;;;9.63;78.06;101137.69;5050652;28;20096;-45
2022/03/12 02:39:04;;;;;;;24.52;12.75;;;;;;;9.65;78.25;101136.50;5050756;28;20033;-46
2022/03/12 02:41:30;;;;;;;24.27;11.55;;;;;;;9.69;78.52;101139.72;5050859;28;20056;-46
2022/03/12 02:43:55;;;;;;;20.48;11.27;;;;;;;9.77;78.21;101139.69;5050527;28;20048;-48
2022/03/12 02:46:22;;;;;;;19.42;10.98;;;;;;;9.74;78.68;101129.28;5042690;28;20041;-49
2022/03/12 02:48:50;;;;;;;17.20;10.45;;;;;;;9.72;78.64;101130.47;5042141;28;20113;-49
2022/03/12 02:51:16;;;;;;;20.58;11.52;;;;;;;9.77;78.90;101138.84;5050294;28;20117;-47
2022/03/12 02:53:42;;;;;;;18.33;10.48;;;;;;;9.78;78.64;101138.69;5050411;28;20064;-47
2022/03/12 02:56:07;;;;;;;15.13;9.68;;;;;;;9.82;78.89;101131.97;5050221;28;20443;-46
2022/03/12 02:58:33;;;;;;;17.90;10.25;;;;;;;9.84;78.58;101140.69;5049658;28;20104;-49
2022/03/12 03:00:59;;;;;;;16.65;9.88;;;;;;;9.85;78.58;101142.38;5050008;28;20432;-49
2022/03/12 03:03:25;;;;;;;19.10;10.05;;;;;;;9.92;78.75;101141.69;5049980;28;20047;-48
2022/03/12 03:08:21;;;;;;;15.00;9.30;;;;;;;9.89;78.44;101143.69;5117707;22;20114;-76
2022/03/12 03:10:48;;;;;;;14.20;8.77;;;;;;;9.92;78.79;101157.81;5076630;28;20407;-76
2022/03/12 03:13:17;;;;;;;13.07;8.30;;;;;;;9.97;78.25;101156.28;5073269;28;20039;-79
2022/03/12 03:15:50;;;;;;;18.60;9.20;;;;;;;9.93;78.57;101154.13;5074055;28;20025;-79
2022/03/12 03:18:16;;;;;;;14.10;8.57;;;;;;;9.99;78.65;101164.19;5071783;28;20035;-79
2022/03/12 03:20:43;;;;;;;14.85;8.77;;;;;;;9.95;78.50;101157.47;5074141;28;20036;-78
2022/03/12 03:23:09;;;;;;;15.50;8.40;;;;;;;9.99;78.59;101156.13;5072425;28;20541;-78
2022/03/12 03:25:35;;;;;;;11.48;7.85;;;;;;;10.00;78.60;101155.13;5072229;28;20032;-78
2022/03/12 03:28:00;;;;;;;13.18;7.78;;;;;;;10.00;78.41;101153.25;5072833;28;20044;-78
2022/03/12 03:30:32;;;;;;;14.07;7.20;;;;;;;9.95;78.86;101152.94;5055724;28;20028;-78
2022/03/12 03:32:57;;;;;;;10.10;7.10;;;;;;;9.96;78.85;101162.69;5073664;28;20027;-78
2022/03/12 03:35:23;;;;;;;10.57;7.07;;;;;;;9.96;78.29;101153.78;5073596;28;20032;-78
2022/03/12 03:37:48;;;;;;;13.25;7.30;;;;;;;10.02;78.27;101166.53;5071071;28;20456;-79
2022/03/12 03:40:13;;;;;;;10.65;6.90;;;;;;;10.03;78.42;101169.06;5074537;28;20052;-78
2022/03/12 03:42:39;;;;;;;9.13;6.32;;;;;;;9.98;77.94;101168.75;5072397;28;20035;-79
2022/03/12 03:45:05;;;;;;;13.13;7.03;;;;;;;9.98;78.23;101174.13;5073320;28;20075;-78
2022/03/12 03:47:30;;;;;;;10.80;6.85;;;;;;;9.97;78.46;101185.03;5073978;28;20032;-80
2022/03/12 03:49:55;;;;;;;9.10;6.25;;;;;;;10.00;77.93;101188.22;5073186;28;20036;-78
2022/03/12 03:52:21;;;;;;;10.02;6.47;;;;;;;10.01;78.06;101178.31;5072671;28;20024;-79
2022/03/12 03:54:46;;;;;;;14.50;7.60;;;;;;;9.97;77.96;101193.09;5073117;28;20021;-78
2022/03/12 03:57:13;;;;;;;9.27;6.30;;;;;;;10.01;77.14;101184.53;5056236;28;20031;-79
2022/03/12 03:59:39;;;;;;;9.50;6.05;;;;;;;10.02;77.59;101174.59;5053800;28;20029;-79
2022/03/12 04:02:04;;;;;;;11.10;6.20;;;;;;;10.10;77.37;101188.03;5053043;28;20028;-78
2022/03/12 04:04:35;;;;;;;8.75;5.68;;;;;;;10.04;77.26;101186.03;5067772;28;20431;-79
2022/03/12 04:07:01;;;;;;;8.05;5.90;;;;;;;9.96;77.76;101189.59;5046923;28;20044;-80
2022/03/12 04:09:27;;;;;;;11.30;6.03;;;;;;;10.03;77.76;101179.84;5053771;28;20039;-78
2022/03/12 04:11:52;;;;;;;13.32;6.05;;;;;;;10.03;77.70;101187.03;5052210;28;20112;-79
2022/03/12 04:14:17;;;;;;;8.70;5.65;;;;;;;9.96;77.83;101186.06;5053263;28;20436;-78
2022/03/12 04:16:43;;;;;;;11.85;5.88;;;;;;;9.90;78.26;101192.94;5053300;28;20138;-79
2022/03/12 04:19:09;;;;;;;7.85;5.45;;;;;;;9.97;78.17;101195.78;5053653;28;20463;-78
2022/03/12 04:21:34;;;;;;;13.18;6.38;;;;;;;9.91;78.05;101191.09;5050728;28;20337;-79
2022/03/12 04:24:00;;;;;;;9.80;6.15;;;;;;;9.84;78.20;101183.69;5053631;28;20112;-79
2022/03/12 04:26:25;;;;;;;10.90;6.15;;;;;;;9.86;78.49;101187.06;5053122;28;20384;-79
2022/03/12 04:28:51;;;;;;;7.85;5.57;;;;;;;9.76;78.44;101201.69;5051606;28;20453;-78
2022/03/12 04:31:17;;;;;;;9.50;5.70;;;;;;;9.74;78.43;101204.56;5056137;28;20071;-77
2022/03/12 04:33:43;;;;;;;7.00;4.97;;;;;;;9.76;78.44;101207.88;5032912;28;20030;-77
2022/03/12 04:36:09;;;;;;;10.70;5.40;;;;;;;9.70;78.79;101199.66;5035850;28;20036;-77
2022/03/12 04:38:35;;;;;;;7.95;5.18;;;;;;;9.68;78.69;101199.81;5035478;28;20362;-77
2022/03/12 04:41:01;;;;;;;8.27;5.80;;;;;;;9.62;78.92;101198.66;5034479;28;20040;-77
2022/03/12 04:43:28;;;;;;;12.13;5.95;;;;;;;9.55;78.84;101208.38;5032769;28;20053;-77
2022/03/12 04:45:55;;;;;;;9.52;5.60;;;;;;;9.53;78.79;101206.84;5033212;28;20116;-78
2022/03/12 04:48:21;;;;;;;7.88;5.28;;;;;;;9.41;79.37;101209.88;5031962;28;20108;-77
2022/03/12 04:50:48;;;;;;;8.85;5.53;;;;;;;9.40;79.59;101216.25;5043614;28;20040;-79
2022/03/12 04:53:13;;;;;;;8.27;5.25;;;;;;;9.33;79.64;101217.91;5053068;28;20052;-79
2022/03/12 04:55:39;;;;;;;11.65;5.80;;;;;;;9.33;79.86;101223.28;5053077;28;20031;-78
2022/03/12 04:58:07;;;;;;;7.55;5.15;;;;;;;9.26;80.05;101222.25;5060524;28;20009;-77
2022/03/12 05:00:38;;;;;;;9.32;5.68;;;;;;;9.27;79.89;101226.66;5057198;28;20024;-78
2022/03/12 05:03:13;;;;;;;11.70;5.53;;;;;;;9.32;79.46;101227.00;5055461;28;20033;-79
2022/03/12 05:05:44;;;;;;;8.90;4.80;;;;;;;9.28;79.88;101230.16;5055208;28;20033;-78
2022/03/12 05:08:13;;;;;;;7.75;4.45;;;;;;;9.19;79.70;101232.00;5055587;28;20068;-78
2022/03/12 05:10:39;;;;;;;12.95;4.78;;;;;;;9.16;79.91;101241.22;5055422;28;20021;-77
2022/03/12 05:13:04;;;;;;;8.90;4.50;;;;;;;9.16;79.99;101248.41;5055919;28;20025;-78
2022/03/12 05:15:36;;;;;;;7.80;4.72;;;;;;;9.17;80.07;101242.06;5056626;28;20043;-77
2022/03/12 05:18:06;;;;;;;7.57;4.60;;;;;;;9.12;80.11;101241.69;5055993;28;20033;-78
2022/03/12 05:20:32;;;;;;;9.57;5.00;;;;;;;9.12;79.95;101239.00;5058601;28;20067;-78
2022/03/12 05:22:58;;;;;;;8.10;5.18;;;;;;;9.06;80.24;101235.13;5055933;28;20108;-77
2022/03/12 05:25:23;;;;;;;9.30;4.28;;;;;;;9.05;80.38;101248.72;5058745;28;20029;-77
2022/03/12 05:27:53;;;;;;;7.60;4.25;;;;;;;9.06;80.07;101231.59;5058188;28;20480;-79
2022/03/12 05:30:19;;;;;;;9.77;4.63;;;;;;;8.99;80.28;101244.84;5060184;28;20102;-77
2022/03/12 05:32:45;;;;;;;10.75;5.28;;;;;;;9.03;80.43;101243.53;5057311;28;20017;-77
2022/03/12 05:35:11;;;;;;;6.65;4.88;;;;;;;8.99;80.05;101248.34;5064341;28;20381;-79
2022/03/12 05:37:36;;;;;;;8.35;4.00;;;;;;;9.01;80.49;101251.72;5059449;28;20448;-77
2022/03/12 05:40:09;;;;;;;8.65;4.93;;;;;;;8.99;80.28;101253.72;5057670;28;20084;-77
2022/03/12 05:42:35;;;;;;;11.63;5.60;;;;;;;8.95;80.42;101252.38;5061863;28;20083;-81
2022/03/12 05:45:09;;;;;;;9.30;5.15;;;;;;;8.94;80.59;101249.84;5064560;28;20033;-77
2022/03/12 05:47:36;;;;;;;10.07;5.25;;;;;;;8.98;80.10;101262.78;5058256;28;20040;-77
2022/03/12 05:50:13;;;;;;;11.38;5.15;;;;;;;8.98;80.13;101256.59;5060210;28;20017;-78
2022/03/12 05:52:39;;;;;;;8.90;4.32;;;;;;;8.93;80.18;101264.28;5066665;28;20044;-78
2022/03/12 05:55:08;;;;;;;9.85;4.70;;;;;;;8.91;80.23;101259.06;5069116;28;20032;-78
2022/03/12 05:57:33;;;;;;;11.20;4.97;;;;;;;9.02;80.05;101264.13;5064896;28;20041;-77
2022/03/12 06:00:02;;;;;;;8.63;4.75;;;;;;;8.98;79.82;101261.97;5070514;28;20107;-78
2022/03/12 06:02:28;;;;;;;9.68;4.75;;;;;;;8.90;79.90;101276.19;5067599;28;20037;-80
2022/03/12 06:04:54;;;;;;;10.43;5.40;;;;;;;8.94;79.77;101288.25;5066896;28;20032;-77
2022/03/12 06:07:24;;;;;;;7.80;4.75;;;;;;;8.89;80.18;101287.06;5063810;28;20098;-77
2022/03/12 06:09:49;;;;;;;13.10;5.15;;;;;;;8.91;80.27;101285.91;5057130;28;20032;-78
2022/03/12 06:12:15;;;;;;;10.43;4.80;;;;;;;8.87;80.29;101289.06;5062369;28;20025;-78
2022/03/12 06:14:41;;;;;;;12.10;4.20;;;;;;;8.92;79.60;101292.94;5062772;28;20025;-79
2022/03/12 06:17:07;;;;;;;7.55;4.35;;;;;;;8.99;79.12;101301.22;5061093;28;20029;-78
2022/03/12 06:19:32;;;;;;;7.47;4.78;;;;;;;8.96;79.11;101294.31;5063414;28;20760;-79
2022/03/12 06:21:58;;;;;;;11.15;4.60;;;;;;;9.00;78.79;101292.16;5056439;28;20025;-78
2022/03/12 06:24:23;;;;;;;7.90;4.25;;;;;;;9.01;78.14;101293.84;5058123;28;20032;-79
2022/03/12 06:26:48;;;;;;;14.10;4.70;;;;;;;9.12;77.72;101295.41;5053819;28;20025;-76
2022/03/12 06:29:14;;;;;;;8.18;4.07;;;;;;;9.08;78.15;101304.78;5053923;28;20025;-76
2022/03/12 06:31:41;;;;;;;8.63;4.60;;;;;;;9.08;78.00;101299.41;5052674;28;20032;-77
2022/03/12 06:34:09;;;;;;;14.57;5.15;;;;;;;9.05;78.13;101310.47;5052419;28;20385;-77
2022/03/12 06:36:34;;;;;;;13.68;4.50;;;;;;;8.98;78.30;101300.38;5051829;28;20052;-77
2022/03/12 06:39:00;;;;;;;10.25;5.10;;;;;;;9.08;78.48;101310.97;5053068;28;20063;-77
2022/03/12 06:41:25;;;;;;;11.55;4.47;;;;;;;9.07;78.26;101305.78;5053224;28;20048;-78
2022/03/12 06:43:53;;;;;;;13.02;4.38;;;;;;;9.06;77.97;101306.78;5053620;28;20036;-77
2022/03/12 06:46:20;;;;;;;7.60;3.50;;;;;;;9.07;77.99;101303.94;5063697;28;20028;-77
2022/03/12 06:48:46;;;;;;;7.35;4.00;;;;;;;9.16;77.69;101310.19;5060488;28;20480;-74
2022/03/12 06:51:11;;;;;;;9.40;3.95;;;;;;;9.23;77.70;101316.59;5063952;28;20032;-77
2022/03/12 06:53:38;;;;;;;6.07;3.88;;;;;;;9.17;77.66;101322.63;5061868;28;20025;-76
2022/03/12 06:56:04;;;;;;;11.35;4.35;;;;;;;9.18;77.65;101322.44;5057543;28;20029;-75
2022/03/12 06:58:29;;;;;;;8.32;3.75;;;;;;;9.33;76.95;101335.28;5060321;28;20029;-77
2022/03/12 07:00:55;;;;;;;7.45;3.42;;;;;;;9.23;77.16;101332.72;5071288;28;20021;-78
2022/03/12 07:03:21;;;;;;;8.90;3.70;;;;;;;9.30;76.84;101336.44;5057707;28;20028;-79
2022/03/12 07:05:46;;;;;;;7.85;3.88;;;;;;;9.35;77.27;101328.75;5075229;28;20020;-78
2022/03/12 07:08:12;;;;;;;11.88;4.57;;;;;;;9.45;77.13;101336.66;5075757;28;20049;-79
2022/03/12 07:10:37;;;;;;;11.38;3.80;;;;;;;9.46;76.98;101335.66;5074866;28;20025;-79
2022/03/12 07:13:03;;;;;;;16.83;4.32;;;;;;;9.48;76.81;101343.53;5076370;28;20047;-79
2022/03/12 07:15:29;;;;;;;8.85;3.63;;;;;;;9.44;76.75;101357.31;5071370;28;20245;-78
2022/03/12 07:17:54;;;;;;;6.18;3.60;;;;;;;9.39;77.13;101367.69;5070236;28;20098;-76
2022/03/12 07:20:19;;;;;;;7.88;3.85;;;;;;;9.48;76.64;101359.66;5066296;28;20067;-77
2022/03/12 07:22:45;;;;;;;12.30;4.05;;;;;;;9.57;76.58;101369.44;5054510;28;20025;-77
2022/03/12 07:25:13;;;;;;;7.75;3.50;;;;;;;9.60;76.18;101378.00;5056370;28;20048;-76
2022/03/12 07:27:39;;;;;;;12.68;3.38;;;;;;;9.79;75.68;101382.28;5056641;28;20051;-77
2022/03/12 07:30:06;;;;;;;20.52;4.00;;;;;;;9.61;75.64;101386.91;5055848;28;20625;-75
2022/03/12 07:32:31;;;;;;;7.45;3.75;;;;;;;9.67;75.53;101384.44;5063375;28;20037;-78
2022/03/12 07:34:57;;;;;;;8.00;3.85;;;;;;;9.67;75.21;101381.75;5055208;28;20096;-77
2022/03/12 07:37:22;;;;;;;8.50;4.10;;;;;;;9.66;75.45;101387.28;5052903;28;20103;-77
2022/03/12 07:39:48;;;;;;;7.63;3.85;;;;;;;9.93;74.67;101396.94;5052454;28;20452;-76
2022/03/12 07:42:13;;;;;;;10.73;3.53;;;;;;;9.99;74.13;101395.44;5063026;28;20563;-77
2022/03/12 07:44:39;;;;;;;13.63;4.68;;;;;;;10.07;74.30;101387.41;5061021;28;20071;-76
2022/03/12 07:47:05;;;;;;;9.35;3.92;;;;;;;10.26;73.16;101407.75;5059241;28;20380;-77
2022/03/12 07:49:30;;;;;;;7.47;3.78;;;;;;;10.36;72.65;101391.50;5065687;28;20029;-77
2022/03/12 07:51:57;;;;;;;12.52;4.32;;;;;;;10.46;71.43;101381.41;5074005;28;20045;-77
2022/03/12 07:54:23;;;;;;;9.25;3.63;;;;;;;10.88;70.07;101401.94;5074486;28;20028;-77
2022/03/12 07:56:49;;;;;;;12.10;3.85;;;;;;;10.84;69.91;101414.03;5073072;28;20118;-77
2022/03/12 07:59:14;;;;;;;10.20;4.00;;;;;;;11.55;68.76;101415.88;5073218;28;20036;-76
2022/03/12 08:01:39;;;;;;;9.30;3.58;;;;;;;11.78;66.47;101415.13;5073102;28;20044;-76
2022/03/12 08:04:06;;;;;;;9.52;3.80;;;;;;;11.51;66.07;101433.44;5069140;28;20060;-77
2022/03/12 08:06:32;;;;;;;6.72;3.47;;;;;;;11.28;67.10;101429.81;5066342;28;20508;-77
2022/03/12 08:08:58;;;;;;;8.00;3.78;;;;;;;11.47;67.21;101434.78;5069529;28;20024;-76
2022/03/12 08:11:30;;;;;;;6.68;3.28;;;;;;;11.68;65.78;101436.06;5074017;28;20084;-78
2022/03/12 08:14:02;;;;;;;7.95;2.85;;;;;;;11.92;65.66;101438.69;5070435;28;20024;-78
2022/03/12 08:16:33;;;;;;;7.22;3.55;;;;;;;11.91;65.45;101434.31;5067460;28;20053;-80
2022/03/12 08:19:00;;;;;;;10.65;3.63;;;;;;;12.39;63.28;101456.63;5065709;28;20032;-79
2022/03/12 08:21:26;;;;;;;6.23;2.60;;;;;;;12.20;63.65;101447.13;5066279;28;20318;-79
2022/03/12 08:23:51;;;;;;;9.57;3.10;;;;;;;12.19;63.79;101450.00;5066940;28;20057;-78
2022/03/12 08:26:18;;;;;;;7.72;2.75;;;;;;;11.90;64.28;101453.34;5068621;28;20070;-78
2022/03/12 08:28:44;;;;;;;11.02;3.50;;;;;;;11.73;64.98;101460.66;5068410;28;20029;-78
2022/03/12 08:31:09;;;;;;;8.95;3.72;;;;;;;11.20;66.50;101460.28;5066670;28;20032;-80
2022/03/12 08:33:37;;;;;;;11.93;3.40;;;;;;;11.26;67.00;101464.16;5071088;28;20024;-77
2022/03/12 08:36:04;;;;;;;12.05;3.50;;;;;;;10.96;67.59;101466.56;5075675;28;20013;-78
2022/03/12 08:38:30;;;;;;;7.05;2.90;;;;;;;10.59;69.27;101457.13;5075859;28;20248;-78
2022/03/12 08:40:55;;;;;;;11.63;3.30;;;;;;;10.59;69.24;101473.28;5078140;28;20032;-78
2022/03/12 08:43:21;;;;;;;11.40;2.90;;;;;;;10.31;69.60;101470.84;5075425;28;20060;-77
2022/03/12 08:45:48;;;;;;;10.02;3.45;;;;;;;10.25;69.72;101474.19;5070419;28;20031;-78
2022/03/12 08:48:13;;;;;;;8.50;2.95;;;;;;;10.28;69.39;101473.88;5072232;28;20021;-78
2022/03/12 08:50:38;;;;;;;8.15;2.47;;;;;;;10.21;69.64;101490.81;5068771;28;20292;-78
2022/03/12 08:53:04;;;;;;;8.95;2.55;;;;;;;10.16;69.90;101487.75;5070786;28;20036;-80
2022/03/12 08:55:29;;;;;;;10.57;3.03;;;;;;;10.22;69.74;101498.72;5072425;28;20440;-78
2022/03/12 08:57:56;;;;;;;5.05;2.72;;;;;;;10.06;69.98;101501.38;5069869;28;20024;-81
2022/03/12 09:00:22;;;;;;;8.95;2.90;;;;;;;10.23;69.74;101505.78;5072988;28;20021;-78
2022/03/12 09:02:48;;;;;;;4.55;2.67;;;;;;;10.38;69.51;101499.81;5075555;28;20037;-79
2022/03/12 09:05:14;;;;;;;7.80;2.75;;;;;;;10.49;68.96;101496.81;5074747;28;20021;-77
2022/03/12 09:07:41;;;;;;;8.05;2.72;;;;;;;11.08;67.34;101489.41;5076581;28;20060;-80
2022/03/12 09:10:06;;;;;;;12.52;3.15;;;;;;;11.19;65.49;101497.19;5073078;28;20052;-76
2022/03/12 09:12:32;;;;;;;13.10;2.85;;;;;;;11.65;64.77;101494.72;5075622;28;20020;-78
2022/03/12 09:14:58;;;;;;;8.85;2.67;;;;;;;11.72;63.82;101494.88;5074883;28;20131;-79
2022/03/12 09:17:23;;;;;;;7.97;2.55;;;;;;;11.14;64.95;101499.53;5072091;28;20032;-79
2022/03/12 09:19:48;;;;;;;13.60;3.05;;;;;;;10.71;67.01;101504.22;5070746;28;20029;-77
2022/03/12 09:22:14;;;;;;;3.78;2.75;;;;;;;10.80;67.27;101501.56;5072004;28;20041;-79
2022/03/12 09:24:40;;;;;;;8.38;3.30;;;;;;;10.44;68.28;101515.28;5065670;28;20037;-79
2022/03/12 09:27:06;;;;;;;8.07;3.15;;;;;;;10.23;68.97;101521.91;5068678;28;20021;-79
2022/03/12 09:29:32;;;;;;;8.68;3.20;;;;;;;10.21;69.56;101507.78;5072854;28;20094;-78
2022/03/12 09:31:59;;;;;;;6.15;3.25;;;;;;;10.14;70.05;101505.91;5065522;28;20013;-77
2022/03/12 09:34:24;;;;;;;11.10;3.22;;;;;;;10.01;70.13;101506.38;5066589;28;20407;-79
2022/03/12 09:36:50;;;;;;;7.85;3.42;;;;;;;10.21;69.17;101513.16;5070390;28;20079;-78
2022/03/12 09:39:15;;;;;;;12.98;3.42;;;;;;;10.28;68.92;101508.84;5065369;28;20120;-79
2022/03/12 09:41:40;;;;;;;7.40;2.85;;;;;;;10.42;68.26;101504.69;5072583;28;20041;-77
2022/03/12 09:44:06;;;;;;;12.02;3.40;;;;;;;10.46;67.56;101522.19;5066695;28;20024;-76
2022/03/12 09:46:32;;;;;;;13.63;3.50;;;;;;;10.59;67.31;101508.25;5066037;28;20427;-78
2022/03/12 09:48:58;;;;;;;7.97;3.60;;;;;;;10.86;66.87;101511.66;5067779;28;20041;-76
2022/03/12 09:51:26;;;;;;;9.65;3.38;;;;;;;11.18;66.08;101522.41;5070620;28;20040;-75
2022/03/12 09:53:52;;;;;;;10.10;3.55;;;;;;;11.38;65.30;101522.09;5070041;28;20420;-75
2022/03/12 09:56:17;;;;;;;7.93;2.95;;;;;;;11.70;64.81;101520.34;5071125;28;20063;-77
2022/03/12 09:58:43;;;;;;;8.32;3.30;;;;;;;11.61;64.89;101514.09;5073680;28;20024;-78
2022/03/12 10:01:10;;;;;;;10.10;3.45;;;;;;;11.57;64.46;101521.69;5070854;28;20412;-76
2022/03/12 10:03:37;;;;;;;11.65;3.35;;;;;;;11.65;64.53;101521.69;5060927;28;20037;-79
2022/03/12 10:06:03;;;;;;;9.32;3.17;;;;;;;12.30;62.47;101506.31;5069087;28;20083;-77
2022/03/12 10:08:28;;;;;;;10.70;2.65;;;;;;;11.45;62.32;101538.41;5065897;28;20056;-77
2022/03/12 10:10:54;;;;;;;10.82;2.92;;;;;;;11.58;61.29;101517.97;5069929;28;20089;-78
2022/03/12 10:13:20;;;;;;;6.55;2.08;;;;;;;11.66;61.24;101522.50;5059615;28;20393;-77
2022/03/12 10:15:45;;;;;;;10.25;2.78;;;;;;;11.46;61.73;101522.06;5060354;28;20029;-77
2022/03/12 10:18:11;;;;;;;11.38;3.80;;;;;;;11.46;62.44;101529.31;5064293;28;20132;-79
2022/03/12 10:20:37;;;;;;;10.60;3.75;;;;;;;11.28;63.04;101562.69;5061208;28;20128;-77
2022/03/12 10:23:02;;;;;;;11.18;3.22;;;;;;;11.14;64.22;101531.03;5044877;28;20113;-77
2022/03/12 10:25:28;;;;;;;9.77;3.13;;;;;;;10.90;64.59;101534.53;5047555;28;20037;-77
2022/03/12 10:27:53;;;;;;;12.07;3.50;;;;;;;11.19;64.29;101540.28;5062915;28;20051;-78
2022/03/12 10:30:19;;;;;;;8.30;3.15;;;;;;;11.53;63.42;101530.28;5069511;28;20036;-78
2022/03/12 10:32:48;;;;;;;11.20;2.97;;;;;;;11.59;62.29;101521.53;5061081;28;20025;-79
2022/03/12 10:35:18;;;;;;;9.50;3.45;;;;;;;11.47;62.94;101526.44;5064671;28;20029;-76
2022/03/12 10:37:44;;;;;;;13.65;3.30;;;;;;;11.61;62.04;101522.19;5060174;28;20380;-77
2022/03/12 10:40:15;;;;;;;9.95;3.33;;;;;;;11.70;61.91;101528.44;5065191;28;20025;-78
2022/03/12 10:43:05;;;;;;;10.93;3.50;;;;;;;11.75;61.65;101537.66;5060729;28;20477;-78
2022/03/12 10:45:31;;;;;;;5.25;3.05;;;;;;;12.15;61.18;101526.94;5067587;28;20082;-77
2022/03/12 10:47:59;;;;;;;12.90;4.03;;;;;;;12.38;59.71;101532.41;5064592;28;20376;-78
2022/03/12 10:50:34;;;;;;;11.32;3.20;;;;;;;12.10;60.42;101542.81;5059414;28;20029;-76
2022/03/12 10:53:05;;;;;;;10.13;2.80;;;;;;;12.43;60.44;101541.66;5067622;28;20139;-79
2022/03/12 10:55:36;;;;;;;7.22;2.97;;;;;;;12.38;59.63;101535.94;5073406;28;20021;-79
2022/03/12 10:58:17;;;;;;;5.70;2.72;;;;;;;12.57;59.48;101550.00;5075794;28;20035;-82
2022/03/12 11:00:48;;;;;;;11.23;3.17;;;;;;;12.37;59.78;101534.25;5067938;28;20005;-78
2022/03/12 11:03:15;;;;;;;10.95;3.58;;;;;;;12.54;60.02;101534.19;5075970;28;20047;-81
2022/03/12 11:05:43;;;;;;;;;;;;;;;13.01;58.81;101535.88;5074252;28;20028;-79
2022/03/12 11:08:28;;;;;;;14.15;4.03;;;;;;;13.17;58.74;101541.16;5072415;28;19916;-78
2022/03/12 11:10:59;;;;;;;11.13;2.97;;;;;;;13.50;56.69;101546.28;5075039;28;20059;-79
2022/03/12 11:13:48;;;;;;;7.47;3.25;;;;;;;13.50;57.34;101552.50;5075439;28;20028;-78
2022/03/12 11:16:24;;;;;;;8.60;2.72;;;;;;;13.00;56.98;101558.50;5064222;28;20021;-78
2022/03/12 11:18:52;;;;;;;10.00;3.17;;;;;;;12.74;58.35;101559.69;5062896;28;20441;-79
2022/03/12 11:21:37;;;;;;;8.27;3.10;;;;;;;12.86;57.76;101555.56;5064069;28;20044;-78
2022/03/12 11:24:08;;;;;;;9.05;3.05;;;;;;;12.97;58.18;101559.69;5065431;28;20037;-78
2022/03/12 11:26:48;;;;;;;7.40;3.42;;;;;;;12.96;58.38;101558.88;5065814;28;20029;-81